Time;durP1;ratioP1;P1;durP2;ratioP2;P2;SDS_P1;SDS_P2;PMS_P1;PMS_P2;Temp;Humidity;BMP_temperature;BMP_pressure;BME280_temperature;BME280_humidity;BME280_pressure;Samples;Min_cycle;Max_cycle;Signal;HPM_P1;HPM_P2
2022/08/15 00:00:27;;;;;;;19.58;15.13;;;;;;;;;;5116529;28;20209;-45
2022/08/15 00:03:03;;;;;;;21.77;15.93;;;;;;;;;;5116569;28;20217;-49
2022/08/15 00:05:38;;;;;;;21.95;16.60;;;;;;;;;;5117063;28;20209;-48
2022/08/15 00:08:08;;;;;;;20.70;16.33;;;;;;;;;;5116124;28;20282;-47
2022/08/15 00:10:59;;;;;;;20.55;16.88;;;;;;;;;;5116536;28;20278;-47
2022/08/15 00:13:53;;;;;;;20.42;16.63;;;;;;;;;;5116468;28;20186;-47
2022/08/15 00:16:29;;;;;;;21.73;15.57;;;;;;;;;;5116330;28;20202;-46
2022/08/15 00:18:59;;;;;;;18.50;15.63;;;;;;;;;;5116018;28;20700;-47
2022/08/15 00:21:26;;;;;;;19.98;16.20;;;;;;;;;;5116266;28;20222;-47
2022/08/15 00:23:55;;;;;;;19.02;15.73;;;;;;;;;;5115956;28;20578;-49
2022/08/15 00:26:22;;;;;;;22.15;16.17;;;;;;;;;;5116123;27;20202;-47
2022/08/15 00:29:11;;;;;;;19.50;16.15;;;;;;;;;;5114783;28;20284;-48
2022/08/15 00:31:39;;;;;;;22.30;16.35;;;;;;;;;;5114867;28;20209;-47
2022/08/15 00:34:10;;;;;;;21.20;15.90;;;;;;;;;;5115793;28;20198;-47
2022/08/15 00:36:58;;;;;;;24.75;16.48;;;;;;;;;;5116729;28;20465;-47
2022/08/15 00:39:27;;;;;;;20.85;15.73;;;;;;;;;;5115500;28;20626;-49
2022/08/15 00:42:05;;;;;;;18.05;15.23;;;;;;;;;;5114915;28;20599;-48
2022/08/15 00:44:40;;;;;;;19.40;15.63;;;;;;;;;;5115592;28;20198;-48
2022/08/15 00:47:28;;;;;;;19.83;15.80;;;;;;;;;;5115415;28;20213;-52
2022/08/15 00:49:58;;;;;;;22.80;16.10;;;;;;;;;;5113197;28;20285;-50
2022/08/15 00:52:31;;;;;;;22.70;16.33;;;;;;;;;;5113995;28;20761;-51
2022/08/15 00:55:12;;;;;;;20.88;16.27;;;;;;;;;;5113565;28;20250;-48
2022/08/15 00:57:44;;;;;;;19.13;15.48;;;;;;;;;;5114613;28;20233;-48
2022/08/15 01:00:36;;;;;;;21.27;15.45;;;;;;;;;;5113295;28;20233;-48
2022/08/15 01:03:18;;;;;;;19.52;15.57;;;;;;;;;;5115856;28;20223;-48
2022/08/15 01:05:49;;;;;;;18.63;15.00;;;;;;;;;;5114611;28;20198;-50
2022/08/15 01:08:20;;;;;;;18.27;15.50;;;;;;;;;;5115969;28;20198;-47
2022/08/15 01:11:18;;;;;;;19.33;15.93;;;;;;;;;;5115229;28;20638;-49
2022/08/15 01:13:47;;;;;;;20.42;16.85;;;;;;;;;;5097803;28;20206;-47
2022/08/15 01:16:30;;;;;;;22.23;16.08;;;;;;;;;;5115151;28;20198;-52
2022/08/15 01:19:13;;;;;;;20.67;16.73;;;;;;;;;;5115149;28;20198;-48
2022/08/15 01:21:52;;;;;;;17.92;16.02;;;;;;;;;;5114268;28;20291;-47
2022/08/15 01:24:46;;;;;;;20.52;16.83;;;;;;;;;;5099377;28;20206;-47
2022/08/15 01:27:37;;;;;;;21.15;16.40;;;;;;;;;;5115925;28;20201;-48
2022/08/15 01:30:10;;;;;;;19.95;16.60;;;;;;;;;;5097980;28;20522;-48
2022/08/15 01:32:58;;;;;;;20.35;16.55;;;;;;;;;;5114853;28;20201;-49
2022/08/15 01:35:27;;;;;;;20.88;17.42;;;;;;;;;;5114263;28;20206;-47
2022/08/15 01:37:56;;;;;;;20.92;16.58;;;;;;;;;;5114295;28;20266;-48
2022/08/15 01:40:29;;;;;;;22.25;16.55;;;;;;;;;;5115004;28;20194;-50
2022/08/15 01:43:17;;;;;;;23.08;17.55;;;;;;;;;;5100271;28;20263;-50
2022/08/15 01:45:44;;;;;;;20.45;16.92;;;;;;;;;;5097440;28;20193;-48
2022/08/15 01:48:28;;;;;;;21.77;16.30;;;;;;;;;;5092993;28;20561;-47
2022/08/15 01:51:06;;;;;;;21.60;16.60;;;;;;;;;;5076464;28;20207;-49
2022/08/15 01:53:47;;;;;;;21.88;15.77;;;;;;;;;;5110037;28;20209;-49
2022/08/15 01:56:32;;;;;;;20.42;16.15;;;;;;;;;;5061628;28;20199;-48
2022/08/15 01:59:09;;;;;;;23.88;15.57;;;;;;;;;;5064502;28;20231;-49
2022/08/15 02:01:43;;;;;;;18.52;15.55;;;;;;;;;;5040064;28;20222;-48
2022/08/15 02:04:29;;;;;;;17.10;14.40;;;;;;;;;;5040945;28;20219;-47
2022/08/15 02:07:12;;;;;;;21.92;15.32;;;;;;;;;;5075443;28;20211;-47
2022/08/15 02:09:49;;;;;;;18.15;14.52;;;;;;;;;;5059876;28;20199;-47
2022/08/15 02:12:29;;;;;;;16.75;14.75;;;;;;;;;;5059418;28;20222;-49
2022/08/15 02:15:20;;;;;;;21.17;15.13;;;;;;;;;;5076068;28;20196;-47
2022/08/15 02:17:51;;;;;;;18.35;14.55;;;;;;;;;;5059632;28;20203;-49
2022/08/15 02:20:20;;;;;;;19.00;14.07;;;;;;;;;;5059453;28;20217;-48
2022/08/15 02:22:53;;;;;;;20.08;14.00;;;;;;;;;;5059073;28;20227;-51
2022/08/15 02:25:21;;;;;;;22.08;14.35;;;;;;;;;;5063899;28;20233;-49
2022/08/15 02:27:53;;;;;;;18.40;15.27;;;;;;;;;;5075356;28;20233;-55
2022/08/15 02:30:25;;;;;;;16.83;14.60;;;;;;;;;;5072439;28;20238;-47
2022/08/15 02:33:02;;;;;;;16.48;14.27;;;;;;;;;;5081346;28;20206;-48
2022/08/15 02:35:32;;;;;;;18.23;14.57;;;;;;;;;;5097076;28;20547;-47
2022/08/15 02:38:05;;;;;;;18.95;14.43;;;;;;;;;;5096476;28;20550;-48
2022/08/15 02:40:47;;;;;;;18.50;16.42;;;;;;;;;;5096689;28;20191;-47
2022/08/15 02:43:20;;;;;;;19.60;14.98;;;;;;;;;;5096623;28;20230;-47
2022/08/15 02:45:49;;;;;;;19.98;16.42;;;;;;;;;;5096245;28;20218;-47
2022/08/15 02:48:40;;;;;;;22.05;16.33;;;;;;;;;;5096413;28;20237;-49
2022/08/15 02:51:22;;;;;;;24.45;18.00;;;;;;;;;;5097111;28;20199;-49
2022/08/15 02:53:51;;;;;;;21.35;16.92;;;;;;;;;;5096817;28;20195;-47
2022/08/15 02:56:22;;;;;;;19.92;15.77;;;;;;;;;;5095904;28;20538;-50
2022/08/15 02:58:57;;;;;;;25.38;17.45;;;;;;;;;;5119522;27;20312;-50
2022/08/15 03:01:26;;;;;;;20.70;17.02;;;;;;;;;;5137010;27;20221;-47
2022/08/15 03:04:13;;;;;;;21.30;16.13;;;;;;;;;;5170395;27;20193;-47
2022/08/15 03:06:56;;;;;;;20.80;17.42;;;;;;;;;;5135078;27;20197;-49
2022/08/15 03:09:26;;;;;;;21.70;16.60;;;;;;;;;;5135001;27;20556;-49
2022/08/15 03:12:03;;;;;;;21.00;17.17;;;;;;;;;;5135030;27;20288;-47
2022/08/15 03:14:52;;;;;;;23.77;16.63;;;;;;;;;;5135811;27;20193;-49
2022/08/15 03:17:20;;;;;;;22.05;17.02;;;;;;;;;;5135755;27;20225;-50
2022/08/15 03:19:49;;;;;;;20.25;15.90;;;;;;;;;;5135890;27;20626;-49
2022/08/15 03:22:20;;;;;;;22.85;15.70;;;;;;;;;;5127175;27;20232;-48
2022/08/15 03:25:07;;;;;;;20.05;15.60;;;;;;;;;;5134630;27;20280;-48
2022/08/15 03:27:35;;;;;;;18.67;16.80;;;;;;;;;;5134360;27;20202;-48
2022/08/15 03:30:07;;;;;;;17.90;15.20;;;;;;;;;;5134326;27;20261;-48
2022/08/15 03:32:54;;;;;;;23.02;16.10;;;;;;;;;;5134524;27;20205;-51
2022/08/15 03:35:28;;;;;;;20.77;16.40;;;;;;;;;;5134361;27;20259;-48
2022/08/15 03:37:59;;;;;;;18.50;15.75;;;;;;;;;;5134566;27;20208;-47
2022/08/15 03:40:34;;;;;;;22.20;16.83;;;;;;;;;;5134467;27;20208;-51
2022/08/15 03:43:05;;;;;;;25.20;17.42;;;;;;;;;;5133992;27;20861;-47
2022/08/15 03:45:48;;;;;;;24.20;16.88;;;;;;;;;;5134637;27;20221;-52
2022/08/15 03:48:21;;;;;;;20.20;16.40;;;;;;;;;;5134415;27;20209;-49
2022/08/15 03:50:54;;;;;;;20.67;16.05;;;;;;;;;;5168671;27;20614;-47
2022/08/15 03:53:34;;;;;;;18.92;15.95;;;;;;;;;;5134305;27;20205;-47
2022/08/15 03:56:02;;;;;;;22.05;16.25;;;;;;;;;;5170516;27;20712;-48
2022/08/15 03:58:37;;;;;;;25.60;16.60;;;;;;;;;;5135765;27;20590;-51
2022/08/15 04:01:12;;;;;;;23.92;16.88;;;;;;;;;;5135910;27;20603;-48
2022/08/15 04:03:42;;;;;;;19.40;16.17;;;;;;;;;;5136469;27;20201;-49
2022/08/15 04:06:11;;;;;;;20.33;16.25;;;;;;;;;;5135877;27;20284;-47
2022/08/15 04:08:50;;;;;;;20.65;16.73;;;;;;;;;;5170772;27;20196;-47
2022/08/15 04:11:42;;;;;;;23.50;17.05;;;;;;;;;;5116177;27;20214;-49
2022/08/15 04:14:14;;;;;;;26.42;17.02;;;;;;;;;;5115669;28;20206;-48
2022/08/15 04:17:04;;;;;;;19.65;16.70;;;;;;;;;;5115484;28;20282;-49
2022/08/15 04:19:45;;;;;;;19.15;16.48;;;;;;;;;;5115066;28;20526;-47
2022/08/15 04:22:47;;;;;;;23.63;16.10;;;;;;;;;;5115688;28;20251;-50
2022/08/15 04:25:34;;;;;;;21.70;16.58;;;;;;;;;;5115370;28;20216;-47
2022/08/15 04:28:23;;;;;;;22.77;16.90;;;;;;;;;;5114955;28;20206;-47
2022/08/15 04:31:14;;;;;;;18.95;15.85;;;;;;;;;;5115097;28;20206;-47
2022/08/15 04:33:44;;;;;;;21.60;16.08;;;;;;;;;;5115407;28;20209;-47
2022/08/15 04:36:33;;;;;;;20.30;16.55;;;;;;;;;;5069046;28;20237;-47
2022/08/15 04:39:02;;;;;;;20.27;16.10;;;;;;;;;;5115351;28;20241;-47
2022/08/15 04:41:35;;;;;;;19.58;15.90;;;;;;;;;;5114736;28;20198;-47
2022/08/15 04:44:08;;;;;;;20.38;16.35;;;;;;;;;;5114622;28;20202;-47
2022/08/15 04:46:47;;;;;;;22.00;16.88;;;;;;;;;;5114719;28;20205;-48
2022/08/15 04:49:14;;;;;;;21.35;16.45;;;;;;;;;;5114746;28;20217;-48
2022/08/15 04:51:44;;;;;;;23.98;16.15;;;;;;;;;;5114316;28;20199;-48
2022/08/15 04:54:12;;;;;;;19.05;15.90;;;;;;;;;;5115370;28;20646;-48
2022/08/15 04:56:44;;;;;;;22.35;16.08;;;;;;;;;;5098500;28;20248;-47
2022/08/15 04:59:21;;;;;;;23.25;16.10;;;;;;;;;;5114381;28;20233;-47
2022/08/15 05:02:12;;;;;;;21.27;16.60;;;;;;;;;;5114815;28;20300;-47
2022/08/15 05:05:02;;;;;;;23.13;16.27;;;;;;;;;;5114679;28;20202;-48
2022/08/15 05:07:31;;;;;;;19.58;15.65;;;;;;;;;;5114499;28;20619;-47
2022/08/15 05:10:04;;;;;;;23.52;15.95;;;;;;;;;;5114649;28;20216;-48
2022/08/15 05:12:41;;;;;;;23.73;15.48;;;;;;;;;;5114448;28;20709;-49
2022/08/15 05:15:10;;;;;;;19.90;15.30;;;;;;;;;;5114375;28;20259;-47
2022/08/15 05:17:40;;;;;;;19.85;15.07;;;;;;;;;;5098002;28;20198;-48
2022/08/15 05:20:27;;;;;;;22.58;15.63;;;;;;;;;;5114450;28;20208;-48
2022/08/15 05:22:59;;;;;;;24.30;15.50;;;;;;;;;;5114037;28;20214;-49
2022/08/15 05:25:36;;;;;;;17.38;14.98;;;;;;;;;;5119143;28;20209;-50
2022/08/15 05:28:09;;;;;;;20.20;15.48;;;;;;;;;;5129244;28;20193;-52
2022/08/15 05:30:59;;;;;;;20.02;15.30;;;;;;;;;;5129451;27;20221;-51
2022/08/15 05:33:43;;;;;;;22.48;15.05;;;;;;;;;;5131256;28;20217;-49
2022/08/15 05:36:28;;;;;;;22.55;14.95;;;;;;;;;;5133724;27;20236;-44
2022/08/15 05:39:03;;;;;;;16.63;14.88;;;;;;;;;;5118170;28;20549;-49
2022/08/15 05:42:03;;;;;;;15.40;13.63;;;;;;;;;;5143430;27;20673;-48
2022/08/15 05:45:01;;;;;;;20.77;14.95;;;;;;;;;;5132816;27;20224;-48
2022/08/15 05:47:32;;;;;;;19.38;14.38;;;;;;;;;;5161260;27;20213;-46
2022/08/15 05:50:22;;;;;;;15.90;13.77;;;;;;;;;;5134350;27;20596;-50
2022/08/15 05:53:15;;;;;;;17.08;14.55;;;;;;;;;;5133335;27;20217;-50
2022/08/15 05:55:52;;;;;;;19.02;14.70;;;;;;;;;;5134237;27;20221;-51
2022/08/15 05:58:29;;;;;;;24.20;14.85;;;;;;;;;;5134193;27;20350;-49
2022/08/15 06:01:17;;;;;;;19.90;14.90;;;;;;;;;;5134868;27;20215;-47
2022/08/15 06:03:53;;;;;;;21.50;15.13;;;;;;;;;;5135297;27;20232;-56
2022/08/15 06:06:26;;;;;;;20.23;14.43;;;;;;;;;;5116847;27;20256;-47
2022/08/15 06:09:26;;;;;;;18.45;13.80;;;;;;;;;;5136114;27;20236;-47
2022/08/15 06:12:02;;;;;;;15.77;14.07;;;;;;;;;;5105093;27;20213;-51
2022/08/15 06:14:53;;;;;;;19.80;14.20;;;;;;;;;;5136755;27;20217;-47
2022/08/15 06:17:36;;;;;;;18.00;14.27;;;;;;;;;;5136984;27;20269;-47
2022/08/15 06:20:13;;;;;;;15.85;13.32;;;;;;;;;;5119946;27;20665;-47
2022/08/15 06:23:16;;;;;;;17.83;13.45;;;;;;;;;;5135352;27;20233;-53
2022/08/15 06:26:11;;;;;;;20.30;14.90;;;;;;;;;;5121107;27;20225;-51
2022/08/15 06:29:01;;;;;;;19.02;14.40;;;;;;;;;;5133725;27;20218;-47
2022/08/15 06:31:34;;;;;;;17.02;14.18;;;;;;;;;;5117869;27;20232;-47
2022/08/15 06:34:36;;;;;;;18.80;13.57;;;;;;;;;;5134114;27;20224;-49
2022/08/15 06:37:26;;;;;;;15.80;12.35;;;;;;;;;;5135363;27;20653;-50
2022/08/15 06:40:01;;;;;;;15.68;12.82;;;;;;;;;;5133596;27;20595;-53
2022/08/15 06:42:50;;;;;;;19.25;13.57;;;;;;;;;;5135637;27;20600;-50
2022/08/15 06:45:42;;;;;;;23.90;12.75;;;;;;;;;;5136652;27;20241;-49
2022/08/15 06:48:21;;;;;;;15.95;12.65;;;;;;;;;;5119503;27;20232;-48
2022/08/15 06:51:11;;;;;;;20.05;13.30;;;;;;;;;;5135310;27;20684;-51
2022/08/15 06:53:50;;;;;;;16.17;13.05;;;;;;;;;;5135820;27;20222;-49
2022/08/15 06:56:35;;;;;;;17.33;13.45;;;;;;;;;;5118424;27;20249;-50
2022/08/15 06:59:33;;;;;;;16.30;13.30;;;;;;;;;;5134835;27;20289;-54
2022/08/15 07:02:13;;;;;;;18.08;13.20;;;;;;;;;;5132597;27;20345;-50
2022/08/15 07:04:53;;;;;;;17.75;13.52;;;;;;;;;;5136338;27;20233;-48
2022/08/15 07:07:35;;;;;;;16.70;13.02;;;;;;;;;;5118827;27;20278;-50
2022/08/15 07:10:14;;;;;;;16.77;13.40;;;;;;;;;;5118675;27;20217;-51
2022/08/15 07:12:48;;;;;;;15.45;13.30;;;;;;;;;;5134035;27;20229;-54
2022/08/15 07:15:28;;;;;;;18.83;13.02;;;;;;;;;;5146769;27;20304;-49
2022/08/15 07:18:00;;;;;;;16.60;12.85;;;;;;;;;;5138983;27;20216;-52
2022/08/15 07:20:31;;;;;;;16.38;13.07;;;;;;;;;;5156288;27;20226;-48
2022/08/15 07:23:20;;;;;;;20.23;12.65;;;;;;;;;;5155674;27;20308;-46
2022/08/15 07:25:51;;;;;;;21.17;13.18;;;;;;;;;;5156730;27;20235;-48
2022/08/15 07:28:26;;;;;;;24.42;13.43;;;;;;;;;;5148340;27;20682;-52
2022/08/15 07:31:17;;;;;;;19.08;13.07;;;;;;;;;;5134976;27;20601;-51
2022/08/15 07:33:50;;;;;;;19.90;12.95;;;;;;;;;;5134894;27;20189;-48
2022/08/15 07:36:30;;;;;;;14.05;12.60;;;;;;;;;;5127915;27;20213;-46
2022/08/15 07:39:40;;;;;;;17.35;12.63;;;;;;;;;;5135565;27;20193;-46
2022/08/15 07:42:20;;;;;;;16.75;12.43;;;;;;;;;;5069390;28;20196;-46
2022/08/15 07:45:31;;;;;;;14.02;12.40;;;;;;;;;;5069968;28;20274;-51
2022/08/15 07:48:21;;;;;;;16.92;12.57;;;;;;;;;;5068927;28;20180;-49
2022/08/15 07:51:09;;;;;;;20.38;12.10;;;;;;;;;;5052471;28;20207;-47
2022/08/15 07:53:59;;;;;;;13.45;11.82;;;;;;;;;;5070572;28;20261;-47
2022/08/15 07:56:49;;;;;;;15.15;12.38;;;;;;;;;;5070328;28;20192;-47
2022/08/15 07:59:23;;;;;;;16.50;11.40;;;;;;;;;;5069836;28;20532;-46
2022/08/15 08:02:21;;;;;;;17.88;11.85;;;;;;;;;;5035269;28;20200;-48
2022/08/15 08:05:00;;;;;;;16.75;11.73;;;;;;;;;;5067345;28;20219;-46
2022/08/15 08:07:42;;;;;;;17.23;12.35;;;;;;;;;;5070003;28;20196;-47
2022/08/15 08:10:54;;;;;;;13.82;11.73;;;;;;;;;;5036349;28;20211;-46
2022/08/15 08:13:43;;;;;;;17.30;11.93;;;;;;;;;;5019986;28;20273;-47
2022/08/15 08:16:55;;;;;;;14.02;11.98;;;;;;;;;;5036604;28;20215;-46
2022/08/15 08:19:49;;;;;;;18.90;11.98;;;;;;;;;;5109803;28;20573;-50
2022/08/15 08:22:42;;;;;;;15.40;12.85;;;;;;;;;;5112619;28;20271;-47
2022/08/15 08:25:53;;;;;;;19.65;11.85;;;;;;;;;;5098073;28;20205;-47
2022/08/15 08:28:46;;;;;;;15.57;11.70;;;;;;;;;;5115051;28;20251;-46
2022/08/15 08:31:21;;;;;;;16.38;11.82;;;;;;;;;;5116184;28;20620;-46
2022/08/15 08:34:24;;;;;;;14.95;11.63;;;;;;;;;;5115843;28;20205;-48
2022/08/15 08:37:48;;;;;;;20.90;11.60;;;;;;;;;;5114816;28;20247;-46
2022/08/15 08:43:46;;;;;;;17.17;11.75;;;;;;;;;;5114794;28;20666;-48
2022/08/15 08:46:41;;;;;;;15.85;11.57;;;;;;;;;;5115981;28;20189;-46
2022/08/15 08:49:32;;;;;;;13.73;10.75;;;;;;;;;;5114892;28;20198;-47
2022/08/15 08:52:34;;;;;;;18.70;10.93;;;;;;;;;;5114297;28;20263;-48
2022/08/15 08:55:07;;;;;;;14.77;10.93;;;;;;;;;;5113806;28;20577;-49
2022/08/15 08:57:41;;;;;;;16.23;10.70;;;;;;;;;;5112796;28;20206;-50
2022/08/15 09:00:14;;;;;;;16.75;11.00;;;;;;;;;;5114429;28;20209;-48
2022/08/15 09:03:17;;;;;;;13.82;10.45;;;;;;;;;;5114594;28;20687;-49
2022/08/15 09:05:51;;;;;;;14.57;10.35;;;;;;;;;;5089544;28;20229;-54
2022/08/15 09:08:24;;;;;;;13.82;11.05;;;;;;;;;;5133886;27;20601;-51
2022/08/15 09:11:07;;;;;;;13.00;10.23;;;;;;;;;;5133123;28;20200;-48
2022/08/15 09:13:36;;;;;;;22.77;10.23;;;;;;;;;;5134156;27;20333;-48
2022/08/15 09:16:19;;;;;;;14.23;10.02;;;;;;;;;;5142610;27;20229;-49
2022/08/15 09:18:59;;;;;;;16.55;10.57;;;;;;;;;;5150582;27;20221;-47
2022/08/15 09:21:27;;;;;;;12.60;10.48;;;;;;;;;;5158933;27;20311;-48
2022/08/15 09:24:05;;;;;;;14.60;9.77;;;;;;;;;;5152872;27;20420;-50
2022/08/15 09:26:55;;;;;;;13.57;9.60;;;;;;;;;;5141791;27;20659;-48
2022/08/15 09:29:36;;;;;;;12.27;9.73;;;;;;;;;;5159738;27;20291;-48
2022/08/15 09:32:28;;;;;;;12.07;9.52;;;;;;;;;;5143667;27;20225;-48
2022/08/15 09:35:10;;;;;;;12.93;9.63;;;;;;;;;;5118609;27;20237;-47
2022/08/15 09:37:55;;;;;;;14.75;10.20;;;;;;;;;;5138694;27;20228;-47
2022/08/15 09:40:28;;;;;;;11.82;9.13;;;;;;;;;;5138831;27;20225;-48
2022/08/15 09:43:29;;;;;;;14.73;9.43;;;;;;;;;;5137418;27;20704;-47
2022/08/15 09:46:09;;;;;;;12.73;9.25;;;;;;;;;;5137043;27;20244;-49
2022/08/15 09:49:30;;;;;;;12.73;7.80;;;;;;;;;;5136704;27;20273;-49
2022/08/15 09:52:21;;;;;;;11.30;8.02;;;;;;;;;;5137853;27;20289;-53
2022/08/15 09:55:31;;;;;;;15.65;8.05;;;;;;;;;;5133410;27;20220;-52
2022/08/15 09:58:12;;;;;;;11.73;8.73;;;;;;;;;;5119165;27;20274;-49
2022/08/15 10:01:23;;;;;;;11.90;8.75;;;;;;;;;;5136747;27;20221;-50
2022/08/15 10:03:54;;;;;;;14.40;8.88;;;;;;;;;;5072895;28;20235;-47
2022/08/15 10:06:48;;;;;;;14.40;8.45;;;;;;;;;;5075325;28;20239;-49
2022/08/15 10:09:27;;;;;;;13.98;8.43;;;;;;;;;;5073626;28;20228;-49
2022/08/15 10:12:07;;;;;;;12.23;8.85;;;;;;;;;;5074643;28;20237;-45
2022/08/15 10:15:01;;;;;;;11.63;8.80;;;;;;;;;;5074494;28;20227;-45
2022/08/15 10:17:37;;;;;;;15.68;9.55;;;;;;;;;;5074512;28;20568;-52
2022/08/15 10:20:26;;;;;;;13.55;8.63;;;;;;;;;;5073969;28;20660;-47
2022/08/15 10:22:57;;;;;;;16.38;9.85;;;;;;;;;;5075047;28;20231;-46
2022/08/15 10:25:37;;;;;;;14.20;9.25;;;;;;;;;;5072365;28;20222;-48
2022/08/15 10:28:11;;;;;;;15.70;9.25;;;;;;;;;;5071371;28;20223;-48
2022/08/15 10:31:00;;;;;;;11.25;9.20;;;;;;;;;;5087285;28;20280;-47
2022/08/15 10:33:38;;;;;;;14.32;10.00;;;;;;;;;;5074519;28;20223;-51
2022/08/15 10:36:16;;;;;;;16.95;10.32;;;;;;;;;;5058477;28;20235;-50
2022/08/15 10:39:39;;;;;;;17.55;9.73;;;;;;;;;;5094155;27;20610;-47
2022/08/15 10:42:29;;;;;;;12.98;10.23;;;;;;;;;;5136596;27;20264;-45
2022/08/15 10:45:10;;;;;;;11.63;9.88;;;;;;;;;;5137313;27;20225;-47
2022/08/15 10:47:54;;;;;;;12.27;9.98;;;;;;;;;;5136509;27;20222;-48
2022/08/15 10:50:33;;;;;;;12.43;8.95;;;;;;;;;;5135909;27;20232;-48
2022/08/15 10:53:30;;;;;;;14.48;10.30;;;;;;;;;;5133997;27;20229;-48
2022/08/15 10:56:28;;;;;;;11.98;9.50;;;;;;;;;;5112872;27;20221;-49
2022/08/15 10:59:18;;;;;;;11.43;9.40;;;;;;;;;;5049711;28;20247;-50
2022/08/15 11:01:48;;;;;;;10.77;9.10;;;;;;;;;;5035292;28;20269;-52
2022/08/15 11:04:36;;;;;;;15.23;9.35;;;;;;;;;;5052337;28;20224;-46
2022/08/15 11:07:28;;;;;;;10.60;8.98;;;;;;;;;;5051805;28;20245;-51
2022/08/15 11:09:58;;;;;;;11.70;9.07;;;;;;;;;;5047348;28;20228;-52
2022/08/15 11:12:30;;;;;;;15.93;10.00;;;;;;;;;;5051960;28;20918;-51
2022/08/15 11:15:04;;;;;;;14.02;9.23;;;;;;;;;;5037093;28;20227;-47
2022/08/15 11:18:08;;;;;;;14.43;9.00;;;;;;;;;;5053110;28;20219;-49
2022/08/15 11:20:52;;;;;;;14.88;10.27;;;;;;;;;;5053249;28;20722;-50
2022/08/15 11:23:39;;;;;;;12.15;9.18;;;;;;;;;;5052933;28;20315;-48
2022/08/15 11:26:11;;;;;;;12.38;9.68;;;;;;;;;;5058668;28;20227;-49
2022/08/15 11:29:06;;;;;;;12.98;9.75;;;;;;;;;;5052407;28;20227;-50
2022/08/15 11:31:43;;;;;;;14.70;9.98;;;;;;;;;;5070727;28;20673;-50
2022/08/15 11:34:26;;;;;;;14.63;9.90;;;;;;;;;;5070350;28;20215;-48
2022/08/15 11:37:18;;;;;;;15.50;10.05;;;;;;;;;;5134377;27;20680;-51
2022/08/15 11:39:53;;;;;;;13.68;10.10;;;;;;;;;;5133974;27;20205;-48
2022/08/15 11:42:25;;;;;;;16.75;9.82;;;;;;;;;;5135821;27;20528;-47
2022/08/15 11:45:03;;;;;;;13.52;9.77;;;;;;;;;;5130479;27;20221;-47
2022/08/15 11:47:33;;;;;;;15.45;10.45;;;;;;;;;;5136348;27;20205;-47
2022/08/15 11:50:05;;;;;;;14.52;9.95;;;;;;;;;;5136142;27;20548;-48
2022/08/15 11:52:37;;;;;;;13.48;9.13;;;;;;;;;;5136531;27;20217;-47
2022/08/15 11:55:41;;;;;;;13.98;10.10;;;;;;;;;;5133682;27;20282;-49
2022/08/15 11:58:14;;;;;;;13.23;9.73;;;;;;;;;;5140682;27;20285;-48
2022/08/15 12:00:48;;;;;;;12.13;9.88;;;;;;;;;;5150065;27;20221;-49
2022/08/15 12:03:30;;;;;;;15.48;10.43;;;;;;;;;;5146983;27;20220;-49
2022/08/15 12:06:32;;;;;;;14.80;10.35;;;;;;;;;;5138558;27;20241;-47
2022/08/15 12:09:26;;;;;;;11.65;10.07;;;;;;;;;;5137410;27;20285;-50
2022/08/15 12:12:30;;;;;;;11.98;9.40;;;;;;;;;;5139253;27;20248;-49
2022/08/15 12:15:10;;;;;;;12.23;10.35;;;;;;;;;;5147579;27;20784;-46
2022/08/15 12:18:08;;;;;;;15.15;10.35;;;;;;;;;;5150502;27;20216;-47
2022/08/15 12:20:57;;;;;;;14.82;10.85;;;;;;;;;;5131469;27;20212;-45
2022/08/15 12:23:35;;;;;;;14.82;11.02;;;;;;;;;;5143519;27;20661;-51
2022/08/15 12:26:18;;;;;;;11.85;10.60;;;;;;;;;;5152122;27;20238;-46
2022/08/15 12:29:05;;;;;;;15.65;11.07;;;;;;;;;;5144584;27;20216;-46
2022/08/15 12:31:37;;;;;;;19.23;10.52;;;;;;;;;;5142245;27;20226;-47
2022/08/15 12:34:27;;;;;;;14.85;11.20;;;;;;;;;;5135686;27;20304;-50
2022/08/15 12:37:04;;;;;;;14.45;11.32;;;;;;;;;;5146236;27;20221;-46
2022/08/15 12:39:41;;;;;;;11.40;10.18;;;;;;;;;;5147196;27;20224;-45
2022/08/15 12:42:14;;;;;;;14.95;10.88;;;;;;;;;;5137121;27;20309;-47
2022/08/15 12:45:10;;;;;;;15.07;11.13;;;;;;;;;;5131229;27;20228;-46
2022/08/15 12:47:40;;;;;;;17.90;11.30;;;;;;;;;;5132184;27;20221;-47
2022/08/15 12:50:27;;;;;;;13.15;11.32;;;;;;;;;;5129941;27;20221;-47
2022/08/15 12:52:56;;;;;;;12.35;10.27;;;;;;;;;;5135324;27;20205;-48
2022/08/15 12:55:23;;;;;;;13.57;10.45;;;;;;;;;;5133336;27;20282;-50
2022/08/15 12:57:50;;;;;;;14.73;11.75;;;;;;;;;;5137483;27;20252;-47
2022/08/15 13:00:29;;;;;;;13.50;9.63;;;;;;;;;;5137565;27;20628;-48
2022/08/15 13:03:13;;;;;;;12.63;10.15;;;;;;;;;;5138630;27;20308;-49
2022/08/15 13:05:51;;;;;;;15.45;9.48;;;;;;;;;;5133027;27;20225;-48
2022/08/15 13:08:38;;;;;;;12.43;9.50;;;;;;;;;;5137593;27;20679;-54
2022/08/15 13:11:08;;;;;;;17.67;10.57;;;;;;;;;;5148478;27;20248;-47
2022/08/15 13:13:42;;;;;;;11.73;9.50;;;;;;;;;;5139374;27;20216;-54
2022/08/15 13:16:09;;;;;;;12.75;8.65;;;;;;;;;;5145058;27;20225;-49
2022/08/15 13:18:57;;;;;;;15.10;10.60;;;;;;;;;;5146139;27;20220;-48
2022/08/15 13:24:25;;;;;;;12.27;8.43;;;;;;;;;;5137618;27;20243;-47
2022/08/15 13:26:53;;;;;;;15.73;8.50;;;;;;;;;;5134087;27;20626;-48
2022/08/15 13:29:23;;;;;;;15.68;8.40;;;;;;;;;;5131731;28;20216;-47
2022/08/15 13:31:50;;;;;;;10.73;7.78;;;;;;;;;;5148260;27;20235;-47
2022/08/15 13:34:19;;;;;;;12.65;9.38;;;;;;;;;;5136627;27;20253;-48
2022/08/15 13:36:49;;;;;;;15.10;8.63;;;;;;;;;;5147311;27;20281;-47
2022/08/15 13:39:29;;;;;;;11.60;8.75;;;;;;;;;;5145057;27;20307;-45
2022/08/15 13:41:58;;;;;;;13.98;9.57;;;;;;;;;;5154363;27;20216;-46
2022/08/15 13:44:46;;;;;;;12.07;9.38;;;;;;;;;;5118614;28;20229;-47
2022/08/15 13:47:17;;;;;;;14.05;8.50;;;;;;;;;;5144303;27;20252;-56
2022/08/15 13:49:44;;;;;;;10.68;8.45;;;;;;;;;;5134621;27;20213;-50
2022/08/15 13:52:15;;;;;;;14.25;8.80;;;;;;;;;;5136359;27;20221;-48
2022/08/15 13:55:04;;;;;;;9.73;8.73;;;;;;;;;;5132927;27;20224;-49
2022/08/15 13:57:42;;;;;;;11.80;8.55;;;;;;;;;;5132808;27;20235;-48
2022/08/15 14:00:31;;;;;;;12.25;8.68;;;;;;;;;;5133807;27;20213;-51
2022/08/15 14:03:20;;;;;;;9.75;8.23;;;;;;;;;;5137935;27;20213;-49
2022/08/15 14:05:50;;;;;;;10.20;9.00;;;;;;;;;;5136642;27;20278;-49
2022/08/15 14:08:18;;;;;;;10.05;8.75;;;;;;;;;;5139687;27;20250;-45
2022/08/15 14:10:59;;;;;;;12.88;8.90;;;;;;;;;;5138327;27;20177;-45
2022/08/15 14:13:41;;;;;;;10.32;8.77;;;;;;;;;;5138825;27;20189;-48
2022/08/15 14:16:10;;;;;;;16.45;9.63;;;;;;;;;;5138751;27;20205;-46
2022/08/15 14:18:57;;;;;;;13.38;9.27;;;;;;;;;;5138187;27;20270;-48
2022/08/15 14:21:30;;;;;;;17.27;10.50;;;;;;;;;;5116959;27;20226;-47
2022/08/15 14:23:59;;;;;;;14.75;9.68;;;;;;;;;;5141416;27;20213;-44
2022/08/15 14:26:31;;;;;;;11.70;9.82;;;;;;;;;;5133527;27;20216;-49
2022/08/15 14:29:28;;;;;;;10.07;9.07;;;;;;;;;;5138069;27;20225;-46
2022/08/15 14:32:17;;;;;;;15.88;9.32;;;;;;;;;;5136073;27;20213;-49
2022/08/15 14:35:07;;;;;;;10.98;9.25;;;;;;;;;;5155005;27;20591;-47
2022/08/15 14:37:55;;;;;;;10.70;9.20;;;;;;;;;;5157702;27;20255;-46
2022/08/15 14:40:28;;;;;;;12.93;10.23;;;;;;;;;;5157837;27;20212;-46
2022/08/15 14:42:55;;;;;;;16.90;10.00;;;;;;;;;;5156524;27;20233;-51
2022/08/15 14:45:26;;;;;;;14.57;9.70;;;;;;;;;;5140411;27;20229;-51
2022/08/15 14:48:15;;;;;;;11.98;9.80;;;;;;;;;;5132028;27;20231;-49
2022/08/15 14:51:03;;;;;;;13.55;9.77;;;;;;;;;;5136156;27;20618;-48
2022/08/15 14:53:51;;;;;;;15.38;9.80;;;;;;;;;;5135346;27;20221;-50
2022/08/15 14:56:19;;;;;;;16.83;9.73;;;;;;;;;;5134204;27;20234;-50
2022/08/15 14:58:58;;;;;;;14.00;10.15;;;;;;;;;;5141553;27;20288;-49
2022/08/15 15:01:26;;;;;;;10.65;9.57;;;;;;;;;;5157832;27;20220;-50
2022/08/15 15:04:14;;;;;;;15.20;9.23;;;;;;;;;;5158101;27;20232;-46
2022/08/15 15:06:47;;;;;;;12.07;9.70;;;;;;;;;;5159221;27;20205;-48
2022/08/15 15:09:16;;;;;;;17.02;9.60;;;;;;;;;;5158812;27;20228;-49
2022/08/15 15:11:45;;;;;;;11.45;10.20;;;;;;;;;;5158631;27;20200;-46
2022/08/15 15:14:21;;;;;;;15.82;9.80;;;;;;;;;;5157923;27;20516;-51
2022/08/15 15:16:54;;;;;;;17.50;9.52;;;;;;;;;;5158214;27;20196;-49
2022/08/15 15:19:25;;;;;;;13.63;10.27;;;;;;;;;;5157831;27;20189;-48
2022/08/15 15:22:09;;;;;;;11.73;9.70;;;;;;;;;;5158101;27;20209;-48
2022/08/15 15:24:43;;;;;;;14.38;9.90;;;;;;;;;;5158054;27;20523;-50
2022/08/15 15:27:18;;;;;;;13.95;10.38;;;;;;;;;;5158075;27;20616;-45
2022/08/15 15:29:52;;;;;;;15.18;10.57;;;;;;;;;;5158004;27;20209;-48
2022/08/15 15:32:20;;;;;;;16.95;10.07;;;;;;;;;;5150672;27;20201;-49
2022/08/15 15:35:05;;;;;;;13.50;10.25;;;;;;;;;;5114313;27;20225;-47
2022/08/15 15:37:34;;;;;;;12.68;10.18;;;;;;;;;;5113608;28;20744;-49
2022/08/15 15:40:06;;;;;;;12.95;9.77;;;;;;;;;;5113579;27;20681;-46
2022/08/15 15:42:34;;;;;;;11.98;10.02;;;;;;;;;;5117886;27;20232;-51
2022/08/15 15:45:04;;;;;;;15.07;10.45;;;;;;;;;;5132984;27;20611;-48